Time;durP1;ratioP1;P1;durP2;ratioP2;P2;SDS_P1;SDS_P2;PMS_P1;PMS_P2;Temp;Humidity;BMP_temperature;BMP_pressure;BME280_temperature;BME280_humidity;BME280_pressure;Samples;Min_cycle;Max_cycle;Signal;HPM_P1;HPM_P2
2024/04/11 00:02:09;;;;;;;2.67;1.20;;;;;;;;;;5465405;26;20002;-67
2024/04/11 00:04:37;;;;;;;1.48;1.00;;;;;;;;;;5464016;26;20032;-67
2024/04/11 00:07:04;;;;;;;2.13;1.20;;;;;;;;;;5467580;26;20006;-67
2024/04/11 00:09:31;;;;;;;2.72;1.20;;;;;;;;;;5467162;26;20043;-67
2024/04/11 00:11:58;;;;;;;2.63;1.20;;;;;;;;;;5469351;26;20026;-67
2024/04/11 00:14:26;;;;;;;4.05;1.35;;;;;;;;;;5467047;26;20045;-67
2024/04/11 00:16:53;;;;;;;2.08;1.30;;;;;;;;;;5463579;26;20455;-68
2024/04/11 00:19:21;;;;;;;2.67;1.60;;;;;;;;;;5465808;26;20003;-67
2024/04/11 00:21:49;;;;;;;3.42;1.20;;;;;;;;;;5466694;26;20035;-67
2024/04/11 00:24:17;;;;;;;1.90;1.23;;;;;;;;;;5464285;26;20006;-68
2024/04/11 00:26:46;;;;;;;2.70;1.40;;;;;;;;;;5466093;26;20042;-67
2024/04/11 00:29:14;;;;;;;2.42;1.23;;;;;;;;;;5464139;26;20006;-67
2024/04/11 00:31:41;;;;;;;2.67;1.30;;;;;;;;;;5467304;26;20020;-68
2024/04/11 00:34:16;;;;;;;2.88;1.10;;;;;;;;;;5465147;26;20014;-68
2024/04/11 00:36:44;;;;;;;1.88;1.20;;;;;;;;;;5467473;26;20017;-67
2024/04/11 00:39:18;;;;;;;2.15;1.15;;;;;;;;;;5467019;26;20428;-67
2024/04/11 00:41:46;;;;;;;2.58;1.30;;;;;;;;;;5463976;26;20002;-67
2024/04/11 00:44:16;;;;;;;2.42;1.23;;;;;;;;;;5467916;26;20363;-67
2024/04/11 00:46:46;;;;;;;3.13;1.27;;;;;;;;;;5466849;26;20342;-67
2024/04/11 00:49:15;;;;;;;3.05;1.30;;;;;;;;;;5466143;26;20578;-67
2024/04/11 00:51:42;;;;;;;2.17;1.40;;;;;;;;;;5467285;26;20016;-67
2024/04/11 00:54:10;;;;;;;2.15;1.20;;;;;;;;;;5467063;26;20041;-67
2024/04/11 00:56:40;;;;;;;2.10;1.10;;;;;;;;;;5465744;26;20313;-67
2024/04/11 00:59:09;;;;;;;1.83;1.23;;;;;;;;;;5466922;26;20006;-67
2024/04/11 01:01:36;;;;;;;1.83;1.10;;;;;;;;;;5463283;26;20355;-67
2024/04/11 01:04:04;;;;;;;2.58;1.13;;;;;;;;;;5465186;26;20398;-67
2024/04/11 01:09:31;;;;;;;1.77;1.00;;;;;;;;;;5464387;26;20012;-67
2024/04/11 01:11:58;;;;;;;1.77;1.30;;;;;;;;;;5460380;26;20007;-68
2024/04/11 01:14:25;;;;;;;2.58;1.05;;;;;;;;;;5464514;26;20007;-67
2024/04/11 01:16:53;;;;;;;1.88;1.20;;;;;;;;;;5463042;26;20013;-67
2024/04/11 01:19:23;;;;;;;4.55;1.52;;;;;;;;;;5466476;26;20013;-68
2024/04/11 01:21:50;;;;;;;1.75;1.27;;;;;;;;;;5466343;26;20006;-67
2024/04/11 01:24:18;;;;;;;1.65;1.13;;;;;;;;;;5466976;26;20066;-68
2024/04/11 01:26:47;;;;;;;3.25;1.30;;;;;;;;;;5465082;26;20316;-67
2024/04/11 01:29:14;;;;;;;2.17;0.98;;;;;;;;;;5464792;26;20016;-67
2024/04/11 01:31:43;;;;;;;2.58;1.20;;;;;;;;;;5466759;26;20006;-67
2024/04/11 01:34:10;;;;;;;1.42;1.00;;;;;;;;;;5466995;26;20016;-68
2024/04/11 01:36:37;;;;;;;2.65;1.15;;;;;;;;;;5464475;26;20002;-67
2024/04/11 01:39:09;;;;;;;1.20;0.95;;;;;;;;;;5465072;26;20033;-67
2024/04/11 01:41:37;;;;;;;1.85;1.30;;;;;;;;;;5462273;26;20003;-68
2024/04/11 01:44:05;;;;;;;2.20;1.20;;;;;;;;;;5461168;26;20005;-67
2024/04/11 01:46:32;;;;;;;1.48;0.95;;;;;;;;;;5492235;26;20006;-67
2024/04/11 01:49:01;;;;;;;2.03;1.38;;;;;;;;;;5461677;26;20007;-68
2024/04/11 01:51:28;;;;;;;2.50;1.48;;;;;;;;;;5463620;26;20006;-68
2024/04/11 01:53:55;;;;;;;3.13;1.20;;;;;;;;;;5465154;26;20006;-67
2024/04/11 01:56:25;;;;;;;1.95;1.20;;;;;;;;;;5459786;26;20012;-67
2024/04/11 01:58:54;;;;;;;2.30;1.30;;;;;;;;;;5461287;26;20348;-67
2024/04/11 02:01:21;;;;;;;2.67;1.30;;;;;;;;;;5465929;26;20006;-67
2024/04/11 02:03:48;;;;;;;2.60;1.10;;;;;;;;;;5461390;26;20012;-67
2024/04/11 02:06:15;;;;;;;1.23;0.95;;;;;;;;;;5455994;26;20024;-67
2024/04/11 02:08:42;;;;;;;2.20;1.23;;;;;;;;;;5465805;26;20021;-67
2024/04/11 02:11:11;;;;;;;1.58;1.02;;;;;;;;;;5467076;26;20035;-67
2024/04/11 02:13:38;;;;;;;3.13;1.10;;;;;;;;;;5459621;26;21007;-67
2024/04/11 02:16:07;;;;;;;1.58;1.00;;;;;;;;;;5459344;26;20757;-67
2024/04/11 02:18:35;;;;;;;2.25;1.13;;;;;;;;;;5460356;26;20006;-68
2024/04/11 02:21:04;;;;;;;2.08;1.00;;;;;;;;;;5466222;26;20002;-67
2024/04/11 02:23:31;;;;;;;1.63;1.17;;;;;;;;;;5461302;26;20007;-67
2024/04/11 02:25:58;;;;;;;2.83;1.13;;;;;;;;;;5459579;21;20002;-64
2024/04/11 02:28:25;;;;;;;3.00;1.38;;;;;;;;;;5443137;26;20376;-64
2024/04/11 02:30:53;;;;;;;2.20;1.25;;;;;;;;;;5441263;26;20021;-64
2024/04/11 02:33:29;;;;;;;1.80;1.30;;;;;;;;;;5442225;26;20006;-64
2024/04/11 02:35:56;;;;;;;1.73;0.95;;;;;;;;;;5422511;26;20003;-64
2024/04/11 02:38:25;;;;;;;2.20;1.13;;;;;;;;;;5442896;26;20017;-64
2024/04/11 02:40:53;;;;;;;1.85;1.10;;;;;;;;;;5437061;26;20017;-64
2024/04/11 02:43:20;;;;;;;2.10;1.02;;;;;;;;;;5436676;26;20046;-65
2024/04/11 02:45:52;;;;;;;3.38;1.33;;;;;;;;;;5438859;26;20007;-64
2024/04/11 02:48:20;;;;;;;2.22;1.15;;;;;;;;;;5445187;26;20356;-64
2024/04/11 02:50:47;;;;;;;2.35;1.20;;;;;;;;;;5438899;26;20006;-64
2024/04/11 02:53:17;;;;;;;2.50;1.20;;;;;;;;;;5444236;26;20038;-64
2024/04/11 02:55:44;;;;;;;1.00;0.90;;;;;;;;;;5430035;26;20003;-64
2024/04/11 02:58:11;;;;;;;1.90;1.10;;;;;;;;;;5443019;26;20027;-64
2024/04/11 03:00:39;;;;;;;2.05;0.98;;;;;;;;;;5435335;26;20007;-64
2024/04/11 03:03:07;;;;;;;1.65;1.02;;;;;;;;;;5438654;26;20007;-64
2024/04/11 03:05:36;;;;;;;2.17;1.00;;;;;;;;;;5434121;26;20014;-64
2024/04/11 03:08:06;;;;;;;1.70;0.98;;;;;;;;;;5429324;26;20011;-64
2024/04/11 03:10:34;;;;;;;1.52;0.93;;;;;;;;;;5443639;26;20618;-64
2024/04/11 03:13:01;;;;;;;1.48;1.00;;;;;;;;;;5441617;26;20017;-64
2024/04/11 03:15:30;;;;;;;2.85;1.10;;;;;;;;;;5439172;26;20015;-64
2024/04/11 03:17:58;;;;;;;3.10;1.30;;;;;;;;;;5443420;26;20017;-64
2024/04/11 03:20:25;;;;;;;1.30;1.10;;;;;;;;;;5439088;26;20017;-64
2024/04/11 03:22:53;;;;;;;1.52;0.98;;;;;;;;;;5439955;26;20013;-64
2024/04/11 03:25:20;;;;;;;2.15;1.10;;;;;;;;;;5438103;26;20006;-64
2024/04/11 03:27:47;;;;;;;1.48;1.00;;;;;;;;;;5439018;26;20007;-64
2024/04/11 03:30:15;;;;;;;2.25;1.20;;;;;;;;;;5438870;26;20003;-64
2024/04/11 03:32:42;;;;;;;2.03;1.02;;;;;;;;;;5442644;26;20003;-64
2024/04/11 03:35:09;;;;;;;1.67;0.90;;;;;;;;;;5444478;26;20637;-64
2024/04/11 03:37:36;;;;;;;2.15;1.45;;;;;;;;;;5444806;26;20006;-64
2024/04/11 03:40:04;;;;;;;1.60;0.98;;;;;;;;;;5447266;26;20003;-64
2024/04/11 03:42:31;;;;;;;2.40;1.10;;;;;;;;;;5446587;26;20494;-64
2024/04/11 03:45:10;;;;;;;1.58;1.15;;;;;;;;;;5447950;26;20378;-64
2024/04/11 03:47:38;;;;;;;1.20;1.00;;;;;;;;;;5448138;26;20031;-64
2024/04/11 03:50:05;;;;;;;1.73;1.20;;;;;;;;;;5446314;26;20533;-64
2024/04/11 03:52:32;;;;;;;1.23;0.90;;;;;;;;;;5443260;26;20332;-64
2024/04/11 03:55:00;;;;;;;1.65;0.90;;;;;;;;;;5446197;26;20007;-64
2024/04/11 03:57:28;;;;;;;1.63;1.00;;;;;;;;;;5447278;26;20034;-64
2024/04/11 03:59:56;;;;;;;2.78;0.95;;;;;;;;;;5448544;26;20039;-64
2024/04/11 04:02:23;;;;;;;3.63;1.08;;;;;;;;;;5445718;26;20002;-64
2024/04/11 04:04:50;;;;;;;1.60;0.73;;;;;;;;;;5444329;26;20013;-64
2024/04/11 04:07:17;;;;;;;1.65;1.00;;;;;;;;;;5432227;26;20018;-64
2024/04/11 04:09:45;;;;;;;1.85;1.00;;;;;;;;;;5447163;26;20013;-64
2024/04/11 04:12:12;;;;;;;1.48;0.90;;;;;;;;;;5443856;26;20002;-64
2024/04/11 04:14:39;;;;;;;1.90;1.00;;;;;;;;;;5447912;26;20038;-64
2024/04/11 04:17:06;;;;;;;1.20;0.80;;;;;;;;;;5446196;26;20007;-63
2024/04/11 04:19:33;;;;;;;1.90;0.93;;;;;;;;;;5443680;26;20006;-64
2024/04/11 04:22:01;;;;;;;1.65;0.90;;;;;;;;;;5443266;26;20560;-64
2024/04/11 04:24:29;;;;;;;1.73;0.90;;;;;;;;;;5435619;26;20020;-64
2024/04/11 04:26:56;;;;;;;1.58;0.90;;;;;;;;;;5443477;26;20017;-64
2024/04/11 04:29:25;;;;;;;1.45;1.20;;;;;;;;;;5447386;26;20042;-64
2024/04/11 04:31:53;;;;;;;1.70;1.23;;;;;;;;;;5442250;26;20339;-64
2024/04/11 04:34:21;;;;;;;1.77;0.90;;;;;;;;;;5444056;26;20031;-64
2024/04/11 04:36:49;;;;;;;2.22;0.88;;;;;;;;;;5429361;26;20013;-64
2024/04/11 04:39:16;;;;;;;1.10;0.90;;;;;;;;;;5447415;26;20059;-64
2024/04/11 04:41:45;;;;;;;2.33;0.93;;;;;;;;;;5447891;26;20013;-64
2024/04/11 04:44:12;;;;;;;2.35;1.00;;;;;;;;;;5446795;26;20026;-64
2024/04/11 04:46:39;;;;;;;1.85;0.95;;;;;;;;;;5448160;26;20023;-64
2024/04/11 04:49:09;;;;;;;2.30;1.08;;;;;;;;;;5448702;26;20042;-64
2024/04/11 04:51:38;;;;;;;1.60;0.95;;;;;;;;;;5447638;26;20034;-64
2024/04/11 04:54:05;;;;;;;1.13;0.98;;;;;;;;;;5447462;26;20017;-64
2024/04/11 04:56:32;;;;;;;1.92;1.10;;;;;;;;;;5432433;26;19995;-64
2024/04/11 04:59:00;;;;;;;1.35;0.95;;;;;;;;;;5442451;26;20027;-64
2024/04/11 05:01:27;;;;;;;1.52;0.90;;;;;;;;;;5446616;26;20006;-64
2024/04/11 05:03:55;;;;;;;1.33;0.93;;;;;;;;;;5448448;26;20030;-64
2024/04/11 05:06:23;;;;;;;1.48;0.88;;;;;;;;;;5431727;26;19999;-64
2024/04/11 05:08:53;;;;;;;2.40;1.02;;;;;;;;;;5438765;26;20702;-64
2024/04/11 05:11:22;;;;;;;1.67;0.90;;;;;;;;;;5443423;26;20390;-64
2024/04/11 05:13:50;;;;;;;1.55;0.80;;;;;;;;;;5447856;26;20456;-64
2024/04/11 05:16:21;;;;;;;1.75;0.90;;;;;;;;;;5443100;26;20003;-64
2024/04/11 05:18:53;;;;;;;1.73;1.08;;;;;;;;;;5448137;26;20473;-64
2024/04/11 05:21:24;;;;;;;1.30;0.82;;;;;;;;;;5447190;26;20016;-64
2024/04/11 05:23:53;;;;;;;1.25;0.70;;;;;;;;;;5444926;26;20473;-64
2024/04/11 05:26:25;;;;;;;1.98;0.90;;;;;;;;;;5431349;26;20081;-64
2024/04/11 05:28:54;;;;;;;1.40;0.80;;;;;;;;;;5443856;26;20022;-64
2024/04/11 05:31:27;;;;;;;1.42;0.75;;;;;;;;;;5431205;26;20339;-64
2024/04/11 05:33:55;;;;;;;1.27;0.93;;;;;;;;;;5446325;26;20023;-64
2024/04/11 05:36:28;;;;;;;1.40;0.90;;;;;;;;;;5441039;26;20007;-64
2024/04/11 05:38:56;;;;;;;1.88;1.05;;;;;;;;;;5442774;26;20020;-67
2024/04/11 05:41:24;;;;;;;1.27;0.82;;;;;;;;;;5445608;26;20003;-68
2024/04/11 05:43:52;;;;;;;1.67;1.00;;;;;;;;;;5442417;26;20003;-67
2024/04/11 05:46:19;;;;;;;1.30;1.00;;;;;;;;;;5445676;26;20032;-68
2024/04/11 05:48:50;;;;;;;2.00;0.95;;;;;;;;;;5443546;26;20017;-68
2024/04/11 05:51:18;;;;;;;2.33;1.00;;;;;;;;;;5445472;26;20013;-67
2024/04/11 05:53:46;;;;;;;1.00;0.90;;;;;;;;;;5444182;26;20003;-67
2024/04/11 05:56:14;;;;;;;1.42;0.80;;;;;;;;;;5445049;26;20080;-67
2024/04/11 05:58:43;;;;;;;1.42;0.98;;;;;;;;;;5439073;26;20343;-67
2024/04/11 06:01:13;;;;;;;1.65;1.02;;;;;;;;;;5441892;26;20006;-67
2024/04/11 06:03:46;;;;;;;1.83;0.90;;;;;;;;;;5447104;26;20461;-68
2024/04/11 06:06:14;;;;;;;1.73;1.05;;;;;;;;;;5447168;26;20392;-67
2024/04/11 06:08:41;;;;;;;1.85;1.10;;;;;;;;;;5438738;26;20105;-67
2024/04/11 06:11:10;;;;;;;1.45;1.00;;;;;;;;;;5441630;26;20050;-67
2024/04/11 06:13:37;;;;;;;1.30;0.90;;;;;;;;;;5446372;26;20507;-67
2024/04/11 06:16:05;;;;;;;1.20;0.93;;;;;;;;;;5444723;26;20021;-66
2024/04/11 06:18:34;;;;;;;1.55;0.95;;;;;;;;;;5444024;26;20039;-66
2024/04/11 06:21:04;;;;;;;0.90;0.65;;;;;;;;;;5444114;26;20042;-66
2024/04/11 06:23:32;;;;;;;2.17;1.10;;;;;;;;;;5446085;26;20017;-66
2024/04/11 06:25:59;;;;;;;1.77;1.00;;;;;;;;;;5444508;26;20031;-66
2024/04/11 06:28:28;;;;;;;1.92;0.85;;;;;;;;;;5429306;26;20009;-67
2024/04/11 06:30:55;;;;;;;1.92;0.90;;;;;;;;;;5441038;26;20201;-67
2024/04/11 06:33:23;;;;;;;1.77;1.10;;;;;;;;;;5446054;26;20753;-67
2024/04/11 06:35:53;;;;;;;2.33;0.90;;;;;;;;;;5444629;26;20039;-67
2024/04/11 06:38:20;;;;;;;1.10;0.90;;;;;;;;;;5442483;26;20007;-67
2024/04/11 06:40:48;;;;;;;3.20;1.10;;;;;;;;;;5430876;26;20007;-67
2024/04/11 06:43:16;;;;;;;1.52;0.80;;;;;;;;;;5443679;26;20085;-67
2024/04/11 06:45:43;;;;;;;4.63;2.00;;;;;;;;;;5443659;26;20003;-67
2024/04/11 06:48:12;;;;;;;4.43;1.80;;;;;;;;;;5439431;26;20007;-67
2024/04/11 06:50:39;;;;;;;5.57;1.60;;;;;;;;;;5442677;26;20458;-68
2024/04/11 06:53:08;;;;;;;5.63;1.60;;;;;;;;;;5442478;26;20768;-67
2024/04/11 06:55:35;;;;;;;3.60;1.05;;;;;;;;;;5437044;26;20006;-67
2024/04/11 06:58:02;;;;;;;2.13;1.25;;;;;;;;;;5442913;26;20002;-67
2024/04/11 07:00:36;;;;;;;3.40;1.30;;;;;;;;;;5444250;26;20036;-67
2024/04/11 07:03:16;;;;;;;3.97;1.15;;;;;;;;;;5446802;26;19995;-67
2024/04/11 07:05:50;;;;;;;2.65;1.08;;;;;;;;;;5445347;26;20042;-67
2024/04/11 07:08:19;;;;;;;1.90;1.00;;;;;;;;;;5442246;26;20034;-67
2024/04/11 07:10:46;;;;;;;2.55;1.05;;;;;;;;;;5438845;26;20014;-68
2024/04/11 07:13:13;;;;;;;2.58;1.30;;;;;;;;;;5449015;26;20019;-69
2024/04/11 07:15:42;;;;;;;2.85;1.00;;;;;;;;;;5440208;26;20021;-69
2024/04/11 07:20:09;;;;;;;2.22;1.30;;;;;;;;;;5540708;25;20289;-68
2024/04/11 07:22:44;;;;;;;2.15;1.40;;;;;;;;;;5535084;25;19997;-69
2024/04/11 07:25:11;;;;;;;3.30;1.38;;;;;;;;;;5536564;25;20049;-68
2024/04/11 07:27:40;;;;;;;3.60;1.50;;;;;;;;;;5533086;25;20025;-69
2024/04/11 07:30:11;;;;;;;4.60;1.52;;;;;;;;;;5534530;25;20360;-68
2024/04/11 07:32:40;;;;;;;2.88;1.52;;;;;;;;;;5499886;25;20845;-68
2024/04/11 07:35:14;;;;;;;3.10;1.60;;;;;;;;;;5535565;25;20029;-68
2024/04/11 07:37:42;;;;;;;2.53;1.35;;;;;;;;;;5536752;25;20033;-68
2024/04/11 07:40:28;;;;;;;2.80;1.40;;;;;;;;;;5538544;25;20004;-68
2024/04/11 07:42:56;;;;;;;3.17;1.70;;;;;;;;;;5534443;25;20033;-68
2024/04/11 07:45:30;;;;;;;2.10;1.30;;;;;;;;;;5525695;25;20442;-68
2024/04/11 07:47:59;;;;;;;3.20;1.50;;;;;;;;;;5536846;25;20351;-67
2024/04/11 07:50:26;;;;;;;3.10;1.45;;;;;;;;;;5535518;25;20022;-68
2024/04/11 07:52:53;;;;;;;3.55;1.60;;;;;;;;;;5538228;25;19997;-68
2024/04/11 07:55:22;;;;;;;2.22;1.60;;;;;;;;;;5532393;25;20033;-68
2024/04/11 07:57:51;;;;;;;4.45;1.90;;;;;;;;;;5529436;25;20017;-68
2024/04/11 08:00:27;;;;;;;4.50;1.50;;;;;;;;;;5534836;25;20005;-67
2024/04/11 08:02:57;;;;;;;4.15;1.65;;;;;;;;;;5505900;25;19998;-67
2024/04/11 08:05:25;;;;;;;5.50;1.63;;;;;;;;;;5538399;25;20041;-67
2024/04/11 08:07:53;;;;;;;3.15;1.42;;;;;;;;;;5535331;25;20482;-67
2024/04/11 08:10:20;;;;;;;6.03;1.70;;;;;;;;;;5537196;25;20065;-67
2024/04/11 08:12:48;;;;;;;3.92;1.65;;;;;;;;;;5535657;25;20033;-67
2024/04/11 08:15:15;;;;;;;4.13;1.75;;;;;;;;;;5536086;25;20015;-64
2024/04/11 08:17:42;;;;;;;5.88;2.28;;;;;;;;;;5537113;25;20041;-65
2024/04/11 08:20:13;;;;;;;2.33;1.80;;;;;;;;;;5526890;25;20341;-66
